KJVL/JVL METAR and TAF weather

Enter ICAO airport designator
Station Type Date Time Source
KJVL METAR 2021/04/18 01:45 UTC NOAA

KJVL 180145Z 32003KT 10SM SCT070 BKN200 11/M03 A2994 RMK LAST


Station Type Date Time Source
KJVL Decoded METAR 2021/04/18 01:45 UTC NOAA

Janesville / Rock County, WI, United States (KJVL) 42-37N 089-02W
Apr 17, 2021 - 09:45 PM EDT / 2021.04.18 0145 UTC
Wind: from the NW (320 degrees) at 3 MPH (3 KT):0
Visibility: 10 mile(s):0
Sky conditions: mostly cloudy
Temperature: 51 F (11 C)
Dew Point: 26 F (-3 C)
Relative Humidity: 37%
Pressure (altimeter): 29.94 in. Hg (1013 hPa)
ob: KJVL 180145Z 32003KT 10SM SCT070 BKN200 11/M03 A2994 RMK LAST
cycle: 2

Station Type Date Time Source
KJVL TAF 2021/04/17 21:58 UTC NOAA

TAF
AMD KJVL 172058Z 1721/1818 35008KT P6SM SCT250
FM180200 00000KT P6SM SCT250
FM181400 30004KT P6SM FEW150
FM181700 30007KT P6SM FEW150

Example: see airport list